sensor_id;sensor_type;location;lat;lon;timestamp;P1;durP1;ratioP1;P2;durP2;ratioP2
3259;SDS011;68938;48.150;14.004;2024-03-08T00:00:22;57.87;;;31.40;;
3259;SDS011;68938;48.150;14.004;2024-03-08T00:02:48;76.77;;;38.77;;
3259;SDS011;68938;48.150;14.004;2024-03-08T00:05:16;60.07;;;37.23;;
3259;SDS011;68938;48.150;14.004;2024-03-08T00:07:43;62.47;;;35.10;;
3259;SDS011;68938;48.150;14.004;2024-03-08T00:10:10;73.63;;;40.90;;
3259;SDS011;68938;48.150;14.004;2024-03-08T00:12:41;71.53;;;36.10;;
3259;SDS011;68938;48.150;14.004;2024-03-08T00:15:11;67.73;;;37.10;;
3259;SDS011;68938;48.150;14.004;2024-03-08T00:17:41;72.40;;;37.30;;
3259;SDS011;68938;48.150;14.004;2024-03-08T00:20:10;78.83;;;40.10;;
3259;SDS011;68938;48.150;14.004;2024-03-08T00:22:37;73.73;;;38.43;;
3259;SDS011;68938;48.150;14.004;2024-03-08T00:25:05;76.53;;;40.13;;
3259;SDS011;68938;48.150;14.004;2024-03-08T00:27:34;78.83;;;39.43;;
3259;SDS011;68938;48.150;14.004;2024-03-08T00:30:01;81.67;;;38.50;;
3259;SDS011;68938;48.150;14.004;2024-03-08T00:32:30;81.33;;;44.23;;
3259;SDS011;68938;48.150;14.004;2024-03-08T00:34:57;71.87;;;41.07;;
3259;SDS011;68938;48.150;14.004;2024-03-08T00:37:24;75.87;;;40.47;;
3259;SDS011;68938;48.150;14.004;2024-03-08T00:39:51;74.13;;;34.97;;
3259;SDS011;68938;48.150;14.004;2024-03-08T00:42:19;80.00;;;42.87;;
3259;SDS011;68938;48.150;14.004;2024-03-08T00:44:47;81.33;;;39.80;;
3259;SDS011;68938;48.150;14.004;2024-03-08T00:47:15;72.63;;;38.23;;
3259;SDS011;68938;48.150;14.004;2024-03-08T00:49:42;70.13;;;40.10;;
3259;SDS011;68938;48.150;14.004;2024-03-08T00:52:09;76.57;;;38.27;;
3259;SDS011;68938;48.150;14.004;2024-03-08T00:54:36;73.03;;;39.90;;
3259;SDS011;68938;48.150;14.004;2024-03-08T00:57:03;74.07;;;39.40;;
3259;SDS011;68938;48.150;14.004;2024-03-08T00:59:31;75.50;;;37.97;;
3259;SDS011;68938;48.150;14.004;2024-03-08T01:01:59;62.87;;;36.73;;
3259;SDS011;68938;48.150;14.004;2024-03-08T01:04:26;75.67;;;39.30;;
3259;SDS011;68938;48.150;14.004;2024-03-08T01:06:57;79.60;;;37.70;;
3259;SDS011;68938;48.150;14.004;2024-03-08T01:09:25;74.67;;;41.27;;
3259;SDS011;68938;48.150;14.004;2024-03-08T01:11:54;67.43;;;37.70;;
3259;SDS011;68938;48.150;14.004;2024-03-08T01:14:22;68.97;;;40.33;;
3259;SDS011;68938;48.150;14.004;2024-03-08T01:16:50;71.37;;;39.50;;
3259;SDS011;68938;48.150;14.004;2024-03-08T01:19:17;72.27;;;40.43;;
3259;SDS011;68938;48.150;14.004;2024-03-08T01:21:44;61.23;;;32.47;;
3259;SDS011;68938;48.150;14.004;2024-03-08T01:24:11;68.97;;;39.37;;
3259;SDS011;68938;48.150;14.004;2024-03-08T01:26:38;68.80;;;38.93;;
3259;SDS011;68938;48.150;14.004;2024-03-08T01:29:05;62.97;;;35.07;;
3259;SDS011;68938;48.150;14.004;2024-03-08T01:31:32;66.67;;;38.60;;
3259;SDS011;68938;48.150;14.004;2024-03-08T01:34:00;56.77;;;33.97;;
3259;SDS011;68938;48.150;14.004;2024-03-08T01:36:27;66.33;;;37.23;;
3259;SDS011;68938;48.150;14.004;2024-03-08T01:38:54;63.97;;;37.17;;
3259;SDS011;68938;48.150;14.004;2024-03-08T01:41:21;73.67;;;38.57;;
3259;SDS011;68938;48.150;14.004;2024-03-08T01:43:47;74.73;;;41.40;;
3259;SDS011;68938;48.150;14.004;2024-03-08T01:46:15;72.40;;;35.63;;
3259;SDS011;68938;48.150;14.004;2024-03-08T01:48:45;69.80;;;39.70;;
3259;SDS011;68938;48.150;14.004;2024-03-08T01:51:13;63.37;;;34.87;;
3259;SDS011;68938;48.150;14.004;2024-03-08T01:53:40;68.13;;;39.90;;
3259;SDS011;68938;48.150;14.004;2024-03-08T01:56:11;78.83;;;39.70;;
3259;SDS011;68938;48.150;14.004;2024-03-08T01:58:38;73.47;;;38.47;;
3259;SDS011;68938;48.150;14.004;2024-03-08T02:01:08;68.03;;;38.77;;
3259;SDS011;68938;48.150;14.004;2024-03-08T02:03:38;70.80;;;37.70;;
3259;SDS011;68938;48.150;14.004;2024-03-08T02:06:05;82.10;;;42.20;;
3259;SDS011;68938;48.150;14.004;2024-03-08T02:08:32;76.43;;;39.30;;
3259;SDS011;68938;48.150;14.004;2024-03-08T02:10:59;74.07;;;40.80;;
3259;SDS011;68938;48.150;14.004;2024-03-08T02:13:26;66.00;;;36.60;;
3259;SDS011;68938;48.150;14.004;2024-03-08T02:15:57;77.03;;;35.17;;
3259;SDS011;68938;48.150;14.004;2024-03-08T02:18:26;65.23;;;38.03;;
3259;SDS011;68938;48.150;14.004;2024-03-08T02:20:56;78.37;;;42.47;;
3259;SDS011;68938;48.150;14.004;2024-03-08T02:23:25;64.17;;;36.67;;
3259;SDS011;68938;48.150;14.004;2024-03-08T02:25:54;73.80;;;40.60;;
3259;SDS011;68938;48.150;14.004;2024-03-08T02:28:23;73.67;;;41.07;;
3259;SDS011;68938;48.150;14.004;2024-03-08T02:30:51;68.13;;;38.70;;
3259;SDS011;68938;48.150;14.004;2024-03-08T02:33:18;66.20;;;36.13;;
3259;SDS011;68938;48.150;14.004;2024-03-08T02:35:46;73.70;;;38.07;;
3259;SDS011;68938;48.150;14.004;2024-03-08T02:38:15;75.87;;;41.77;;
3259;SDS011;68938;48.150;14.004;2024-03-08T02:40:43;75.20;;;40.30;;
3259;SDS011;68938;48.150;14.004;2024-03-08T02:43:11;71.47;;;41.53;;
3259;SDS011;68938;48.150;14.004;2024-03-08T02:45:39;71.67;;;41.57;;
3259;SDS011;68938;48.150;14.004;2024-03-08T02:48:07;76.00;;;40.07;;
3259;SDS011;68938;48.150;14.004;2024-03-08T02:50:35;82.77;;;43.97;;
3259;SDS011;68938;48.150;14.004;2024-03-08T02:53:02;87.73;;;42.80;;
3259;SDS011;68938;48.150;14.004;2024-03-08T02:55:30;72.87;;;41.43;;
3259;SDS011;68938;48.150;14.004;2024-03-08T02:57:57;75.63;;;38.47;;
3259;SDS011;68938;48.150;14.004;2024-03-08T03:00:24;69.45;;;40.20;;
3259;SDS011;68938;48.150;14.004;2024-03-08T03:02:51;74.50;;;42.70;;
3259;SDS011;68938;48.150;14.004;2024-03-08T03:05:18;72.63;;;40.53;;
3259;SDS011;68938;48.150;14.004;2024-03-08T03:07:45;65.63;;;38.60;;
3259;SDS011;68938;48.150;14.004;2024-03-08T03:10:12;72.17;;;43.20;;
3259;SDS011;68938;48.150;14.004;2024-03-08T03:12:39;75.57;;;41.80;;
3259;SDS011;68938;48.150;14.004;2024-03-08T03:15:06;71.70;;;40.63;;
3259;SDS011;68938;48.150;14.004;2024-03-08T03:17:33;79.60;;;39.57;;
3259;SDS011;68938;48.150;14.004;2024-03-08T03:20:00;73.80;;;41.40;;
3259;SDS011;68938;48.150;14.004;2024-03-08T03:22:27;73.83;;;40.17;;
3259;SDS011;68938;48.150;14.004;2024-03-08T03:24:54;71.40;;;41.57;;
3259;SDS011;68938;48.150;14.004;2024-03-08T03:27:21;70.00;;;38.90;;
3259;SDS011;68938;48.150;14.004;2024-03-08T03:29:48;77.07;;;36.73;;
3259;SDS011;68938;48.150;14.004;2024-03-08T03:32:15;75.10;;;40.77;;
3259;SDS011;68938;48.150;14.004;2024-03-08T03:34:42;69.30;;;39.83;;
3259;SDS011;68938;48.150;14.004;2024-03-08T03:37:09;65.60;;;37.03;;
3259;SDS011;68938;48.150;14.004;2024-03-08T03:39:36;68.70;;;35.60;;
3259;SDS011;68938;48.150;14.004;2024-03-08T03:42:03;70.80;;;40.33;;
3259;SDS011;68938;48.150;14.004;2024-03-08T03:44:31;73.60;;;42.03;;
3259;SDS011;68938;48.150;14.004;2024-03-08T03:46:58;78.57;;;40.93;;
3259;SDS011;68938;48.150;14.004;2024-03-08T03:49:25;78.97;;;39.40;;
3259;SDS011;68938;48.150;14.004;2024-03-08T03:51:52;75.77;;;37.93;;
3259;SDS011;68938;48.150;14.004;2024-03-08T03:54:19;63.03;;;33.43;;
3259;SDS011;68938;48.150;14.004;2024-03-08T03:56:46;73.03;;;38.40;;
3259;SDS011;68938;48.150;14.004;2024-03-08T03:59:13;70.07;;;39.17;;
3259;SDS011;68938;48.150;14.004;2024-03-08T04:01:41;65.07;;;36.03;;
3259;SDS011;68938;48.150;14.004;2024-03-08T04:04:09;61.93;;;35.30;;
3259;SDS011;68938;48.150;14.004;2024-03-08T04:06:36;66.17;;;39.97;;
3259;SDS011;68938;48.150;14.004;2024-03-08T04:09:03;63.87;;;35.57;;
3259;SDS011;68938;48.150;14.004;2024-03-08T04:11:30;69.43;;;39.70;;
3259;SDS011;68938;48.150;14.004;2024-03-08T04:13:57;66.33;;;37.47;;
3259;SDS011;68938;48.150;14.004;2024-03-08T04:16:24;66.50;;;35.23;;
3259;SDS011;68938;48.150;14.004;2024-03-08T04:18:51;66.37;;;35.80;;
3259;SDS011;68938;48.150;14.004;2024-03-08T04:21:19;64.57;;;37.87;;
3259;SDS011;68938;48.150;14.004;2024-03-08T04:23:46;72.27;;;38.47;;
3259;SDS011;68938;48.150;14.004;2024-03-08T04:26:13;65.80;;;38.33;;
3259;SDS011;68938;48.150;14.004;2024-03-08T04:28:43;75.33;;;36.23;;
3259;SDS011;68938;48.150;14.004;2024-03-08T04:31:10;66.67;;;36.93;;
3259;SDS011;68938;48.150;14.004;2024-03-08T04:33:37;69.53;;;38.63;;
3259;SDS011;68938;48.150;14.004;2024-03-08T04:36:04;61.93;;;35.73;;
3259;SDS011;68938;48.150;14.004;2024-03-08T04:38:31;69.60;;;36.50;;
3259;SDS011;68938;48.150;14.004;2024-03-08T04:40:58;71.03;;;37.50;;
3259;SDS011;68938;48.150;14.004;2024-03-08T04:43:25;62.57;;;34.60;;
3259;SDS011;68938;48.150;14.004;2024-03-08T04:45:53;60.30;;;34.57;;
3259;SDS011;68938;48.150;14.004;2024-03-08T04:48:20;72.60;;;38.57;;
3259;SDS011;68938;48.150;14.004;2024-03-08T04:50:47;69.00;;;40.50;;
3259;SDS011;68938;48.150;14.004;2024-03-08T04:53:14;61.30;;;36.87;;
3259;SDS011;68938;48.150;14.004;2024-03-08T04:55:41;68.27;;;36.27;;
3259;SDS011;68938;48.150;14.004;2024-03-08T04:58:08;68.30;;;38.13;;
3259;SDS011;68938;48.150;14.004;2024-03-08T05:00:35;73.47;;;38.33;;
3259;SDS011;68938;48.150;14.004;2024-03-08T05:03:02;72.17;;;36.73;;
3259;SDS011;68938;48.150;14.004;2024-03-08T05:05:29;73.27;;;40.50;;
3259;SDS011;68938;48.150;14.004;2024-03-08T05:07:56;67.30;;;37.17;;
3259;SDS011;68938;48.150;14.004;2024-03-08T05:10:23;71.07;;;39.47;;
3259;SDS011;68938;48.150;14.004;2024-03-08T05:12:50;70.83;;;40.00;;
3259;SDS011;68938;48.150;14.004;2024-03-08T05:15:20;70.93;;;40.30;;
3259;SDS011;68938;48.150;14.004;2024-03-08T05:17:47;67.30;;;39.00;;
3259;SDS011;68938;48.150;14.004;2024-03-08T05:20:14;72.95;;;38.40;;
3259;SDS011;68938;48.150;14.004;2024-03-08T05:22:41;71.80;;;37.47;;
3259;SDS011;68938;48.150;14.004;2024-03-08T05:25:08;83.50;;;42.33;;
3259;SDS011;68938;48.150;14.004;2024-03-08T05:27:35;67.60;;;37.73;;
3259;SDS011;68938;48.150;14.004;2024-03-08T05:30:02;74.43;;;36.20;;
3259;SDS011;68938;48.150;14.004;2024-03-08T05:32:30;74.77;;;42.30;;
3259;SDS011;68938;48.150;14.004;2024-03-08T05:34:58;83.83;;;40.83;;
3259;SDS011;68938;48.150;14.004;2024-03-08T05:37:25;73.87;;;36.50;;
3259;SDS011;68938;48.150;14.004;2024-03-08T05:39:52;78.27;;;38.70;;
3259;SDS011;68938;48.150;14.004;2024-03-08T05:42:19;70.93;;;41.17;;
3259;SDS011;68938;48.150;14.004;2024-03-08T05:44:46;64.43;;;35.80;;
3259;SDS011;68938;48.150;14.004;2024-03-08T05:47:13;56.03;;;35.83;;
3259;SDS011;68938;48.150;14.004;2024-03-08T05:49:40;61.80;;;33.47;;
3259;SDS011;68938;48.150;14.004;2024-03-08T05:52:07;77.47;;;40.00;;
3259;SDS011;68938;48.150;14.004;2024-03-08T05:54:34;71.77;;;42.97;;
3259;SDS011;68938;48.150;14.004;2024-03-08T05:57:01;77.47;;;37.80;;
3259;SDS011;68938;48.150;14.004;2024-03-08T05:59:28;71.83;;;39.00;;
3259;SDS011;68938;48.150;14.004;2024-03-08T06:01:55;74.70;;;39.17;;
3259;SDS011;68938;48.150;14.004;2024-03-08T06:04:22;73.67;;;38.53;;
3259;SDS011;68938;48.150;14.004;2024-03-08T06:06:49;64.47;;;33.83;;
3259;SDS011;68938;48.150;14.004;2024-03-08T06:09:18;72.20;;;39.70;;
3259;SDS011;68938;48.150;14.004;2024-03-08T06:11:45;64.87;;;34.20;;
3259;SDS011;68938;48.150;14.004;2024-03-08T06:14:12;66.07;;;37.93;;
3259;SDS011;68938;48.150;14.004;2024-03-08T06:16:39;64.73;;;36.47;;
3259;SDS011;68938;48.150;14.004;2024-03-08T06:19:06;71.37;;;37.57;;
3259;SDS011;68938;48.150;14.004;2024-03-08T06:21:33;67.47;;;38.33;;
3259;SDS011;68938;48.150;14.004;2024-03-08T06:24:00;66.30;;;37.93;;
3259;SDS011;68938;48.150;14.004;2024-03-08T06:26:27;68.60;;;37.37;;
3259;SDS011;68938;48.150;14.004;2024-03-08T06:28:56;66.73;;;37.97;;
3259;SDS011;68938;48.150;14.004;2024-03-08T06:31:25;71.43;;;38.20;;
3259;SDS011;68938;48.150;14.004;2024-03-08T06:33:52;59.47;;;34.97;;
3259;SDS011;68938;48.150;14.004;2024-03-08T06:36:19;66.07;;;33.27;;
3259;SDS011;68938;48.150;14.004;2024-03-08T06:38:46;65.93;;;36.80;;
3259;SDS011;68938;48.150;14.004;2024-03-08T06:41:14;60.63;;;34.73;;
3259;SDS011;68938;48.150;14.004;2024-03-08T06:43:44;70.17;;;36.70;;
3259;SDS011;68938;48.150;14.004;2024-03-08T06:46:12;68.20;;;38.73;;
3259;SDS011;68938;48.150;14.004;2024-03-08T06:48:41;71.77;;;36.43;;
3259;SDS011;68938;48.150;14.004;2024-03-08T06:51:09;63.13;;;37.80;;
3259;SDS011;68938;48.150;14.004;2024-03-08T06:53:36;70.20;;;39.27;;
3259;SDS011;68938;48.150;14.004;2024-03-08T06:56:03;68.60;;;36.30;;
3259;SDS011;68938;48.150;14.004;2024-03-08T06:58:30;58.27;;;33.70;;
3259;SDS011;68938;48.150;14.004;2024-03-08T07:00:57;62.33;;;39.80;;
3259;SDS011;68938;48.150;14.004;2024-03-08T07:03:24;68.80;;;36.67;;
3259;SDS011;68938;48.150;14.004;2024-03-08T07:05:51;70.50;;;38.73;;
3259;SDS011;68938;48.150;14.004;2024-03-08T07:08:18;64.03;;;39.43;;
3259;SDS011;68938;48.150;14.004;2024-03-08T07:10:45;60.80;;;37.57;;
3259;SDS011;68938;48.150;14.004;2024-03-08T07:13:12;73.83;;;40.53;;
3259;SDS011;68938;48.150;14.004;2024-03-08T07:15:39;61.70;;;38.23;;
3259;SDS011;68938;48.150;14.004;2024-03-08T07:18:06;65.20;;;36.20;;
3259;SDS011;68938;48.150;14.004;2024-03-08T07:20:33;62.97;;;38.57;;
3259;SDS011;68938;48.150;14.004;2024-03-08T07:23:00;65.77;;;41.30;;
3259;SDS011;68938;48.150;14.004;2024-03-08T07:25:27;65.03;;;36.87;;
3259;SDS011;68938;48.150;14.004;2024-03-08T07:27:54;67.93;;;39.60;;
3259;SDS011;68938;48.150;14.004;2024-03-08T07:30:25;63.70;;;38.00;;
3259;SDS011;68938;48.150;14.004;2024-03-08T07:32:55;68.60;;;38.83;;
3259;SDS011;68938;48.150;14.004;2024-03-08T07:35:22;67.00;;;39.20;;
3259;SDS011;68938;48.150;14.004;2024-03-08T07:37:49;64.43;;;36.07;;
3259;SDS011;68938;48.150;14.004;2024-03-08T07:40:16;62.90;;;35.20;;
3259;SDS011;68938;48.150;14.004;2024-03-08T07:42:43;65.57;;;39.27;;
3259;SDS011;68938;48.150;14.004;2024-03-08T07:45:10;57.97;;;33.77;;
3259;SDS011;68938;48.150;14.004;2024-03-08T07:47:37;57.87;;;34.60;;
3259;SDS011;68938;48.150;14.004;2024-03-08T07:50:05;66.47;;;38.50;;
3259;SDS011;68938;48.150;14.004;2024-03-08T07:52:32;59.17;;;35.83;;
3259;SDS011;68938;48.150;14.004;2024-03-08T07:55:00;69.77;;;37.80;;
3259;SDS011;68938;48.150;14.004;2024-03-08T07:57:27;63.13;;;40.60;;
3259;SDS011;68938;48.150;14.004;2024-03-08T07:59:54;61.30;;;37.80;;
3259;SDS011;68938;48.150;14.004;2024-03-08T08:02:21;46.90;;;28.90;;
3259;SDS011;68938;48.150;14.004;2024-03-08T08:04:48;50.13;;;32.67;;
3259;SDS011;68938;48.150;14.004;2024-03-08T08:07:15;59.83;;;40.73;;
3259;SDS011;68938;48.150;14.004;2024-03-08T08:09:42;54.17;;;33.83;;
3259;SDS011;68938;48.150;14.004;2024-03-08T08:12:09;52.50;;;31.53;;
3259;SDS011;68938;48.150;14.004;2024-03-08T08:14:36;54.93;;;33.07;;
3259;SDS011;68938;48.150;14.004;2024-03-08T08:17:03;54.20;;;31.77;;
3259;SDS011;68938;48.150;14.004;2024-03-08T08:19:30;57.03;;;37.07;;
3259;SDS011;68938;48.150;14.004;2024-03-08T08:21:57;56.70;;;36.00;;
3259;SDS011;68938;48.150;14.004;2024-03-08T08:24:24;58.50;;;31.77;;
3259;SDS011;68938;48.150;14.004;2024-03-08T08:26:51;57.17;;;36.40;;
3259;SDS011;68938;48.150;14.004;2024-03-08T08:29:18;55.80;;;37.23;;
3259;SDS011;68938;48.150;14.004;2024-03-08T08:31:45;53.00;;;36.20;;
3259;SDS011;68938;48.150;14.004;2024-03-08T08:34:12;53.30;;;33.47;;
3259;SDS011;68938;48.150;14.004;2024-03-08T08:36:39;54.47;;;32.20;;
3259;SDS011;68938;48.150;14.004;2024-03-08T08:41:40;54.07;;;34.37;;
3259;SDS011;68938;48.150;14.004;2024-03-08T08:44:07;58.57;;;34.07;;
3259;SDS011;68938;48.150;14.004;2024-03-08T08:46:42;54.10;;;33.00;;
3259;SDS011;68938;48.150;14.004;2024-03-08T08:49:09;56.97;;;31.27;;
3259;SDS011;68938;48.150;14.004;2024-03-08T08:51:36;51.87;;;32.53;;
3259;SDS011;68938;48.150;14.004;2024-03-08T08:54:03;51.80;;;31.33;;
3259;SDS011;68938;48.150;14.004;2024-03-08T08:56:32;50.93;;;30.90;;
3259;SDS011;68938;48.150;14.004;2024-03-08T08:58:59;46.60;;;28.67;;
3259;SDS011;68938;48.150;14.004;2024-03-08T09:01:26;41.97;;;28.53;;
3259;SDS011;68938;48.150;14.004;2024-03-08T09:03:53;49.40;;;33.60;;
3259;SDS011;68938;48.150;14.004;2024-03-08T09:06:20;43.10;;;29.90;;
3259;SDS011;68938;48.150;14.004;2024-03-08T09:08:47;50.47;;;32.97;;
3259;SDS011;68938;48.150;14.004;2024-03-08T09:11:14;46.97;;;25.40;;
3259;SDS011;68938;48.150;14.004;2024-03-08T09:13:44;57.27;;;31.93;;
3259;SDS011;68938;48.150;14.004;2024-03-08T09:16:11;53.30;;;33.63;;
3259;SDS011;68938;48.150;14.004;2024-03-08T09:18:38;51.13;;;31.50;;
3259;SDS011;68938;48.150;14.004;2024-03-08T09:21:05;47.47;;;33.27;;
3259;SDS011;68938;48.150;14.004;2024-03-08T09:23:32;45.07;;;29.20;;
3259;SDS011;68938;48.150;14.004;2024-03-08T09:25:59;55.33;;;31.60;;
3259;SDS011;68938;48.150;14.004;2024-03-08T09:28:26;49.60;;;33.33;;
3259;SDS011;68938;48.150;14.004;2024-03-08T09:30:53;45.20;;;27.00;;
3259;SDS011;68938;48.150;14.004;2024-03-08T09:33:25;49.73;;;31.47;;
3259;SDS011;68938;48.150;14.004;2024-03-08T09:35:52;44.67;;;28.60;;
3259;SDS011;68938;48.150;14.004;2024-03-08T09:38:19;42.47;;;28.80;;
3259;SDS011;68938;48.150;14.004;2024-03-08T09:40:46;44.87;;;26.87;;
3259;SDS011;68938;48.150;14.004;2024-03-08T09:43:13;41.70;;;27.53;;
3259;SDS011;68938;48.150;14.004;2024-03-08T09:45:40;39.10;;;28.40;;
3259;SDS011;68938;48.150;14.004;2024-03-08T09:48:10;36.80;;;27.93;;
3259;SDS011;68938;48.150;14.004;2024-03-08T09:50:38;45.53;;;30.00;;
3259;SDS011;68938;48.150;14.004;2024-03-08T09:53:06;40.17;;;24.33;;
3259;SDS011;68938;48.150;14.004;2024-03-08T09:55:36;40.33;;;27.90;;
3259;SDS011;68938;48.150;14.004;2024-03-08T09:58:05;35.50;;;25.40;;
3259;SDS011;68938;48.150;14.004;2024-03-08T10:00:32;34.57;;;24.07;;
3259;SDS011;68938;48.150;14.004;2024-03-08T10:03:02;37.00;;;25.33;;
3259;SDS011;68938;48.150;14.004;2024-03-08T10:05:30;34.23;;;26.00;;
3259;SDS011;68938;48.150;14.004;2024-03-08T10:07:58;31.53;;;19.60;;
3259;SDS011;68938;48.150;14.004;2024-03-08T10:10:25;36.20;;;25.50;;
3259;SDS011;68938;48.150;14.004;2024-03-08T10:12:52;36.63;;;24.07;;
3259;SDS011;68938;48.150;14.004;2024-03-08T10:15:19;32.40;;;23.33;;
3259;SDS011;68938;48.150;14.004;2024-03-08T10:17:46;33.50;;;22.17;;
3259;SDS011;68938;48.150;14.004;2024-03-08T10:20:14;34.40;;;22.47;;
3259;SDS011;68938;48.150;14.004;2024-03-08T10:22:44;29.20;;;20.90;;
3259;SDS011;68938;48.150;14.004;2024-03-08T10:25:28;26.80;;;17.70;;
3259;SDS011;68938;48.150;14.004;2024-03-08T10:27:55;24.77;;;17.20;;
3259;SDS011;68938;48.150;14.004;2024-03-08T10:30:22;30.20;;;20.70;;
3259;SDS011;68938;48.150;14.004;2024-03-08T10:32:50;28.23;;;19.47;;
3259;SDS011;68938;48.150;14.004;2024-03-08T10:35:17;30.50;;;19.80;;
3259;SDS011;68938;48.150;14.004;2024-03-08T10:37:48;29.77;;;20.37;;
3259;SDS011;68938;48.150;14.004;2024-03-08T10:40:17;28.03;;;19.90;;
3259;SDS011;68938;48.150;14.004;2024-03-08T10:42:56;25.03;;;20.87;;
3259;SDS011;68938;48.150;14.004;2024-03-08T10:45:37;29.53;;;22.50;;
3259;SDS011;68938;48.150;14.004;2024-03-08T10:50:49;23.60;;;18.40;;
3259;SDS011;68938;48.150;14.004;2024-03-08T10:53:17;27.83;;;20.97;;
3259;SDS011;68938;48.150;14.004;2024-03-08T10:55:45;30.80;;;22.20;;
3259;SDS011;68938;48.150;14.004;2024-03-08T10:58:14;28.67;;;20.23;;
3259;SDS011;68938;48.150;14.004;2024-03-08T11:00:42;34.70;;;20.87;;
3259;SDS011;68938;48.150;14.004;2024-03-08T11:03:27;28.80;;;17.90;;
3259;SDS011;68938;48.150;14.004;2024-03-08T11:06:18;27.00;;;21.03;;
3259;SDS011;68938;48.150;14.004;2024-03-08T11:09:11;26.47;;;19.10;;
3259;SDS011;68938;48.150;14.004;2024-03-08T11:14:48;30.70;;;21.77;;
3259;SDS011;68938;48.150;14.004;2024-03-08T11:19:58;32.10;;;23.23;;
3259;SDS011;68938;48.150;14.004;2024-03-08T11:22:29;38.47;;;23.50;;
3259;SDS011;68938;48.150;14.004;2024-03-08T11:25:03;27.83;;;21.40;;
3259;SDS011;68938;48.150;14.004;2024-03-08T11:27:31;31.80;;;21.67;;
3259;SDS011;68938;48.150;14.004;2024-03-08T11:30:02;36.30;;;24.37;;
3259;SDS011;68938;48.150;14.004;2024-03-08T11:32:30;29.17;;;21.27;;
3259;SDS011;68938;48.150;14.004;2024-03-08T11:34:57;29.90;;;20.37;;
3259;SDS011;68938;48.150;14.004;2024-03-08T11:37:26;32.33;;;21.60;;
3259;SDS011;68938;48.150;14.004;2024-03-08T11:39:55;28.23;;;22.93;;
3259;SDS011;68938;48.150;14.004;2024-03-08T11:42:22;26.87;;;20.13;;
3259;SDS011;68938;48.150;14.004;2024-03-08T11:44:50;26.17;;;21.17;;
3259;SDS011;68938;48.150;14.004;2024-03-08T11:47:17;30.90;;;23.73;;
3259;SDS011;68938;48.150;14.004;2024-03-08T11:49:45;29.60;;;22.90;;
3259;SDS011;68938;48.150;14.004;2024-03-08T11:52:12;27.07;;;21.27;;
3259;SDS011;68938;48.150;14.004;2024-03-08T11:54:51;33.80;;;23.33;;
3259;SDS011;68938;48.150;14.004;2024-03-08T11:57:22;24.37;;;20.07;;
3259;SDS011;68938;48.150;14.004;2024-03-08T11:59:50;27.80;;;21.20;;
3259;SDS011;68938;48.150;14.004;2024-03-08T12:02:23;33.60;;;21.60;;
3259;SDS011;68938;48.150;14.004;2024-03-08T12:04:57;28.03;;;20.53;;
3259;SDS011;68938;48.150;14.004;2024-03-08T12:07:27;27.30;;;21.37;;
3259;SDS011;68938;48.150;14.004;2024-03-08T12:12:49;26.87;;;20.67;;
3259;SDS011;68938;48.150;14.004;2024-03-08T12:15:22;25.33;;;20.70;;
3259;SDS011;68938;48.150;14.004;2024-03-08T12:17:51;31.63;;;21.70;;
3259;SDS011;68938;48.150;14.004;2024-03-08T12:20:20;25.83;;;20.27;;
3259;SDS011;68938;48.150;14.004;2024-03-08T12:22:50;30.43;;;20.47;;
3259;SDS011;68938;48.150;14.004;2024-03-08T12:25:19;29.90;;;22.70;;
3259;SDS011;68938;48.150;14.004;2024-03-08T12:27:47;19.80;;;17.30;;
3259;SDS011;68938;48.150;14.004;2024-03-08T12:35:26;25.20;;;19.57;;
3259;SDS011;68938;48.150;14.004;2024-03-08T12:37:56;27.77;;;20.57;;
3259;SDS011;68938;48.150;14.004;2024-03-08T12:40:28;26.00;;;19.17;;
3259;SDS011;68938;48.150;14.004;2024-03-08T12:42:57;26.30;;;20.50;;
3259;SDS011;68938;48.150;14.004;2024-03-08T12:45:25;27.63;;;19.73;;
3259;SDS011;68938;48.150;14.004;2024-03-08T12:47:52;30.17;;;19.30;;
3259;SDS011;68938;48.150;14.004;2024-03-08T12:50:24;27.93;;;20.90;;
3259;SDS011;68938;48.150;14.004;2024-03-08T12:52:51;27.20;;;19.87;;
3259;SDS011;68938;48.150;14.004;2024-03-08T12:55:19;24.20;;;17.07;;
3259;SDS011;68938;48.150;14.004;2024-03-08T12:57:46;24.43;;;19.00;;
3259;SDS011;68938;48.150;14.004;2024-03-08T13:00:14;22.40;;;16.43;;
3259;SDS011;68938;48.150;14.004;2024-03-08T13:02:41;25.63;;;18.80;;
3259;SDS011;68938;48.150;14.004;2024-03-08T13:05:08;25.20;;;18.63;;
3259;SDS011;68938;48.150;14.004;2024-03-08T13:07:35;26.70;;;19.27;;
3259;SDS011;68938;48.150;14.004;2024-03-08T13:10:03;26.13;;;19.07;;
3259;SDS011;68938;48.150;14.004;2024-03-08T13:12:31;25.97;;;17.70;;
3259;SDS011;68938;48.150;14.004;2024-03-08T13:14:58;23.63;;;19.20;;
3259;SDS011;68938;48.150;14.004;2024-03-08T13:17:25;23.53;;;18.40;;
3259;SDS011;68938;48.150;14.004;2024-03-08T13:19:52;21.30;;;17.80;;
3259;SDS011;68938;48.150;14.004;2024-03-08T13:22:19;25.87;;;18.23;;
3259;SDS011;68938;48.150;14.004;2024-03-08T13:24:46;25.90;;;18.10;;
3259;SDS011;68938;48.150;14.004;2024-03-08T13:27:16;24.63;;;16.60;;
3259;SDS011;68938;48.150;14.004;2024-03-08T13:29:43;26.90;;;19.00;;
3259;SDS011;68938;48.150;14.004;2024-03-08T13:32:10;20.37;;;15.80;;
3259;SDS011;68938;48.150;14.004;2024-03-08T13:34:40;28.93;;;15.43;;
3259;SDS011;68938;48.150;14.004;2024-03-08T13:37:09;23.23;;;16.73;;
3259;SDS011;68938;48.150;14.004;2024-03-08T13:39:36;22.70;;;15.40;;
3259;SDS011;68938;48.150;14.004;2024-03-08T13:42:04;19.60;;;15.20;;
3259;SDS011;68938;48.150;14.004;2024-03-08T13:44:31;20.43;;;15.10;;
3259;SDS011;68938;48.150;14.004;2024-03-08T13:46:58;21.97;;;15.87;;
3259;SDS011;68938;48.150;14.004;2024-03-08T13:49:25;19.00;;;14.80;;
3259;SDS011;68938;48.150;14.004;2024-03-08T13:51:53;22.07;;;15.70;;
3259;SDS011;68938;48.150;14.004;2024-03-08T13:54:20;20.27;;;14.37;;
3259;SDS011;68938;48.150;14.004;2024-03-08T13:56:46;17.40;;;14.30;;
3259;SDS011;68938;48.150;14.004;2024-03-08T13:59:13;14.37;;;12.83;;
3259;SDS011;68938;48.150;14.004;2024-03-08T14:01:40;16.43;;;13.90;;
3259;SDS011;68938;48.150;14.004;2024-03-08T14:04:07;16.43;;;12.60;;
3259;SDS011;68938;48.150;14.004;2024-03-08T14:06:34;20.10;;;13.67;;
3259;SDS011;68938;48.150;14.004;2024-03-08T14:09:02;16.17;;;13.10;;
3259;SDS011;68938;48.150;14.004;2024-03-08T14:11:29;16.17;;;12.63;;
3259;SDS011;68938;48.150;14.004;2024-03-08T14:13:56;17.40;;;12.97;;
3259;SDS011;68938;48.150;14.004;2024-03-08T14:16:23;18.87;;;13.97;;
3259;SDS011;68938;48.150;14.004;2024-03-08T14:18:50;17.80;;;13.47;;
3259;SDS011;68938;48.150;14.004;2024-03-08T14:21:17;15.20;;;13.63;;
3259;SDS011;68938;48.150;14.004;2024-03-08T14:23:44;17.00;;;14.73;;
3259;SDS011;68938;48.150;14.004;2024-03-08T14:26:11;18.30;;;13.67;;
3259;SDS011;68938;48.150;14.004;2024-03-08T14:28:38;14.87;;;13.27;;
3259;SDS011;68938;48.150;14.004;2024-03-08T14:31:05;16.57;;;13.50;;
3259;SDS011;68938;48.150;14.004;2024-03-08T14:33:33;16.33;;;13.10;;
3259;SDS011;68938;48.150;14.004;2024-03-08T14:36:00;14.97;;;12.50;;
3259;SDS011;68938;48.150;14.004;2024-03-08T14:38:28;16.40;;;14.70;;
3259;SDS011;68938;48.150;14.004;2024-03-08T14:40:55;14.23;;;12.70;;
3259;SDS011;68938;48.150;14.004;2024-03-08T14:43:22;15.07;;;12.63;;